Time;durP1;ratioP1;P1;durP2;ratioP2;P2;SDS_P1;SDS_P2;PMS_P1;PMS_P2;Temp;Humidity;BMP_temperature;BMP_pressure;BME280_temperature;BME280_humidity;BME280_pressure;Samples;Min_cycle;Max_cycle;Signal;HPM_P1;HPM_P2
2021/06/15 04:56:40;;;;;;;6.58;5.65;;;;;;;29.32;48.46;100120.26;1854011;77;23330;-64
2021/06/15 04:59:07;;;;;;;6.15;5.65;;;;;;;29.47;47.72;100126.29;1830706;77;20926;-66
2021/06/15 05:01:35;;;;;;;5.80;5.35;;;;;;;29.64;47.07;100122.13;1839122;77;22273;-69
2021/06/15 05:04:05;;;;;;;6.10;5.50;;;;;;;29.74;47.09;100117.17;1810996;77;20887;-67
2021/06/15 05:06:33;;;;;;;6.60;5.33;;;;;;;29.85;46.24;100120.57;1837316;77;20907;-66
2021/06/15 05:09:03;;;;;;;6.12;5.30;;;;;;;29.95;46.36;100124.17;1835564;77;20973;-72
2021/06/15 05:11:34;;;;;;;6.00;5.40;;;;;;;30.08;46.54;100123.33;1828033;77;21528;-69
2021/06/15 05:14:04;;;;;;;6.03;5.12;;;;;;;30.19;45.79;100128.87;1831121;77;21130;-72
2021/06/15 05:16:33;;;;;;;5.65;5.25;;;;;;;30.30;45.95;100124.72;1833019;77;20973;-76
2021/06/15 05:19:01;;;;;;;6.08;5.62;;;;;;;30.49;45.46;100130.52;1829572;77;20981;-73
2021/06/15 05:21:49;;;;;;;6.65;5.17;;;;;;;30.58;44.94;100128.45;1822414;77;20985;-73
2021/06/15 05:24:51;;;;;;;5.50;5.10;;;;;;;30.58;45.17;100129.79;1841501;77;20935;-71
2021/06/15 05:27:21;;;;;;;7.05;5.47;;;;;;;30.83;45.11;100129.86;1839929;76;21128;-63
2021/06/15 05:29:49;;;;;;;6.10;5.20;;;;;;;31.14;44.53;100130.44;1830429;76;20967;-67
2021/06/15 05:32:18;;;;;;;9.35;5.42;;;;;;;31.34;44.48;100129.75;1838935;77;21034;-62
2021/06/15 05:34:46;;;;;;;5.35;4.95;;;;;;;31.61;43.79;100127.64;1834217;77;20957;-63
2021/06/15 05:37:13;;;;;;;6.65;5.42;;;;;;;31.89;43.03;100129.09;1829331;77;20973;-66
2021/06/15 05:39:40;;;;;;;5.20;4.70;;;;;;;32.04;42.83;100127.67;1823808;77;21120;-71
2021/06/15 05:42:08;;;;;;;5.55;5.03;;;;;;;32.16;42.00;100124.53;1834253;77;21003;-67
2021/06/15 05:44:36;;;;;;;5.10;4.70;;;;;;;32.21;41.98;100123.04;1841901;77;21400;-76
2021/06/15 05:47:03;;;;;;;4.97;4.58;;;;;;;32.24;41.82;100123.45;1831060;77;20852;-76
2021/06/15 05:49:31;;;;;;;5.03;4.60;;;;;;;32.32;42.27;100118.28;1833187;77;20973;-78
2021/06/15 05:52:04;;;;;;;5.72;4.62;;;;;;;32.49;41.56;100121.98;1848527;77;21060;-74
2021/06/15 05:54:31;;;;;;;5.20;4.80;;;;;;;32.63;40.99;100124.81;1839462;77;21236;-77
2021/06/15 05:56:59;;;;;;;5.20;4.80;;;;;;;32.77;40.80;100126.85;1821693;76;21007;-82
2021/06/15 05:59:27;;;;;;;7.67;5.33;;;;;;;32.84;40.26;100123.51;1829969;76;21077;-75
2021/06/15 06:01:54;;;;;;;8.60;4.95;;;;;;;32.90;40.47;100126.64;1831505;77;20933;-75
2021/06/15 06:04:24;;;;;;;6.42;5.08;;;;;;;32.88;40.80;100124.70;1840003;77;21123;-74
2021/06/15 06:09:38;;;;;;;5.22;4.62;;;;;;;33.19;40.29;100124.16;1807289;77;20989;-72
2021/06/15 06:12:07;;;;;;;4.92;4.47;;;;;;;33.27;39.78;100123.30;1860125;77;20882;-81
2021/06/15 06:14:40;;;;;;;4.75;4.42;;;;;;;33.26;39.62;100119.45;1841773;76;21040;-82
2021/06/15 06:17:08;;;;;;;5.08;4.72;;;;;;;33.26;39.29;100120.27;1836976;77;21165;-74
2021/06/15 06:19:35;;;;;;;5.15;4.58;;;;;;;33.31;39.47;100120.96;1849254;76;20872;-79
2021/06/15 06:22:03;;;;;;;5.00;4.45;;;;;;;33.44;39.08;100116.17;1837148;76;20998;-78
2021/06/15 06:24:31;;;;;;;4.65;4.28;;;;;;;33.54;38.62;100119.66;1844635;76;21484;-63
2021/06/15 06:26:58;;;;;;;4.50;4.10;;;;;;;33.58;39.34;100114.61;1843295;76;20971;-65
2021/06/15 06:29:26;;;;;;;4.12;3.72;;;;;;;33.79;38.45;100113.50;1841424;76;23194;-70
2021/06/15 06:31:53;;;;;;;4.40;4.03;;;;;;;33.94;36.87;100110.33;1831852;76;21117;-74
2021/06/15 06:34:20;;;;;;;4.05;3.75;;;;;;;33.85;37.36;100110.39;1815037;76;21330;-78
2021/06/15 06:36:47;;;;;;;9.75;4.75;;;;;;;33.72;36.98;100116.81;1823134;76;21060;-72
2021/06/15 06:39:14;;;;;;;4.22;3.87;;;;;;;33.60;37.41;100114.64;1829529;76;20950;-69
2021/06/15 06:41:41;;;;;;;4.12;3.83;;;;;;;33.53;37.55;100119.36;1824572;76;21310;-74
2021/06/15 06:44:08;;;;;;;5.03;4.03;;;;;;;33.61;37.54;100111.41;1824795;77;21591;-67
2021/06/15 06:46:39;;;;;;;3.90;3.60;;;;;;;33.64;37.87;100114.99;1817274;76;21037;-74
2021/06/15 06:49:06;;;;;;;4.17;3.80;;;;;;;33.72;38.14;100111.41;1832936;76;21476;-68
2021/06/15 06:51:33;;;;;;;4.87;4.08;;;;;;;33.92;36.92;100109.74;1842267;76;20953;-66
2021/06/15 06:54:00;;;;;;;3.77;3.42;;;;;;;33.93;36.45;100112.73;1825377;76;21090;-65
2021/06/15 06:56:28;;;;;;;4.97;4.22;;;;;;;33.87;36.37;100110.16;1794648;78;20909;-67
2021/06/15 06:58:55;;;;;;;4.95;3.92;;;;;;;33.89;36.61;100102.11;1793377;80;21485;-68
2021/06/15 07:01:24;;;;;;;3.90;3.60;;;;;;;33.86;37.20;100105.28;1784142;78;20988;-70
2021/06/15 07:03:52;;;;;;;6.12;3.50;;;;;;;33.96;37.00;100101.98;1777180;78;21523;-75
2021/06/15 07:06:19;;;;;;;5.35;4.00;;;;;;;34.00;36.37;100108.00;1788242;78;21525;-68
2021/06/15 07:08:47;;;;;;;4.35;3.77;;;;;;;34.05;37.07;100101.36;1791031;78;20877;-70
2021/06/15 07:11:16;;;;;;;5.05;3.45;;;;;;;34.18;36.37;100100.81;1771898;80;20893;-67
2021/06/15 07:13:43;;;;;;;3.55;3.25;;;;;;;34.20;36.40;100100.86;1781739;78;20910;-71
2021/06/15 07:16:12;;;;;;;3.65;3.35;;;;;;;34.19;36.40;100096.52;1781350;78;20953;-76
2021/06/15 07:18:39;;;;;;;3.17;2.98;;;;;;;34.23;35.89;100094.98;1797755;78;21809;-72
2021/06/15 07:21:07;;;;;;;4.28;3.45;;;;;;;34.19;35.16;100096.52;1805297;78;20879;-70
2021/06/15 07:23:36;;;;;;;3.98;3.58;;;;;;;33.90;35.89;100092.13;1804309;78;20892;-66
2021/06/15 07:26:03;;;;;;;4.70;3.27;;;;;;;33.61;36.59;100099.26;1794635;78;20984;-70
2021/06/15 07:28:31;;;;;;;3.50;3.20;;;;;;;33.49;36.35;100101.98;1801097;78;20972;-75
2021/06/15 07:30:58;;;;;;;3.42;3.12;;;;;;;33.28;36.75;100097.13;1806769;77;22137;-71
2021/06/15 07:33:25;;;;;;;4.25;3.15;;;;;;;33.17;37.01;100104.14;1799577;78;21036;-75
2021/06/15 07:35:52;;;;;;;3.35;3.02;;;;;;;33.12;37.40;100105.37;1795549;78;21488;-73
2021/06/15 07:38:21;;;;;;;5.70;3.40;;;;;;;33.12;36.57;100095.92;1765209;78;20968;-75
2021/06/15 07:40:50;;;;;;;3.33;2.67;;;;;;;33.15;36.71;100099.51;1789547;78;21656;-69
2021/06/15 07:43:18;;;;;;;2.80;2.60;;;;;;;33.21;36.06;100090.45;1784633;78;21046;-75
2021/06/15 07:45:45;;;;;;;3.00;2.80;;;;;;;33.15;35.59;100099.51;1790621;78;21574;-72
2021/06/15 07:48:12;;;;;;;3.52;2.77;;;;;;;33.05;36.18;100087.92;1781220;78;21034;-63
2021/06/15 07:50:39;;;;;;;11.53;2.95;;;;;;;33.11;36.55;100084.31;1777205;78;21044;-69
2021/06/15 07:53:07;;;;;;;3.27;2.70;;;;;;;33.31;37.00;100077.77;1751157;80;20917;-74
2021/06/15 07:55:34;;;;;;;3.55;2.77;;;;;;;33.46;36.02;100079.49;1810517;77;21150;-67
2021/06/15 07:58:01;;;;;;;4.37;3.12;;;;;;;33.53;35.84;100073.98;1819941;77;21651;-73
2021/06/15 08:00:28;;;;;;;3.42;2.95;;;;;;;33.56;35.82;100080.27;1810290;77;20938;-68
2021/06/15 08:02:55;;;;;;;3.00;2.80;;;;;;;33.54;34.70;100065.65;1826494;77;21013;-73
2021/06/15 08:05:23;;;;;;;5.42;2.77;;;;;;;33.42;34.51;100066.17;1823950;77;20936;-70
2021/06/15 08:07:52;;;;;;;3.33;2.80;;;;;;;33.34;35.43;100069.20;1821293;77;21117;-74
2021/06/15 08:10:19;;;;;;;2.80;2.60;;;;;;;33.28;34.69;100068.27;1815558;77;20966;-72
2021/06/15 08:12:48;;;;;;;3.17;2.80;;;;;;;33.08;35.04;100063.18;1843608;77;21528;-79
2021/06/15 08:15:15;;;;;;;5.40;2.67;;;;;;;33.00;34.51;100062.16;1829564;77;20953;-75
2021/06/15 08:17:42;;;;;;;2.92;2.50;;;;;;;32.82;34.67;100059.53;1821398;77;20965;-64
2021/06/15 08:20:11;;;;;;;2.70;2.50;;;;;;;32.55;34.75;100059.08;1818345;77;21814;-68
2021/06/15 08:22:38;;;;;;;4.33;2.87;;;;;;;32.11;35.66;100048.13;1808437;77;20876;-75
2021/06/15 08:25:06;;;;;;;3.08;2.87;;;;;;;31.68;36.60;100047.67;1827370;77;21046;-70
2021/06/15 08:27:35;;;;;;;2.80;2.58;;;;;;;31.47;37.03;100045.39;1820699;77;21003;-68
2021/06/15 08:30:05;;;;;;;3.17;2.98;;;;;;;31.44;37.43;100041.28;1787334;77;21025;-67
2021/06/15 08:32:32;;;;;;;5.35;2.83;;;;;;;31.42;37.15;100045.23;1802656;77;21111;-69
2021/06/15 08:34:59;;;;;;;2.87;2.67;;;;;;;31.41;37.92;100040.89;1808537;77;21051;-75
2021/06/15 08:37:26;;;;;;;2.90;2.60;;;;;;;31.59;37.77;100038.21;1810486;77;21205;-68
2021/06/15 08:39:53;;;;;;;2.60;2.40;;;;;;;31.67;36.45;100043.83;1814131;77;20895;-70
2021/06/15 08:42:21;;;;;;;2.67;2.50;;;;;;;31.46;36.45;100035.67;1821966;77;20938;-67
2021/06/15 08:44:48;;;;;;;2.70;2.50;;;;;;;31.10;37.10;100039.08;1813137;77;21030;-69
2021/06/15 08:47:17;;;;;;;3.83;2.80;;;;;;;30.75;37.51;100041.41;1827705;77;20920;-66
2021/06/15 08:49:44;;;;;;;3.02;2.72;;;;;;;30.38;38.29;100034.48;1825891;77;20975;-68
2021/06/15 08:52:12;;;;;;;3.87;3.30;;;;;;;30.12;39.09;100034.58;1823647;77;21600;-66
2021/06/15 08:54:39;;;;;;;3.72;3.12;;;;;;;29.99;40.14;100037.31;1826842;77;20989;-64
2021/06/15 08:57:09;;;;;;;3.30;2.87;;;;;;;29.96;39.63;100031.84;1805848;77;21080;-75
2021/06/15 08:59:36;;;;;;;3.25;2.60;;;;;;;29.96;39.70;100028.34;1805925;77;21098;-62
2021/06/15 09:02:05;;;;;;;3.17;2.87;;;;;;;29.99;40.08;100029.26;1775923;79;20935;-66
2021/06/15 09:04:34;;;;;;;4.40;3.00;;;;;;;30.12;40.28;100035.92;1775263;80;21480;-66
2021/06/15 09:07:01;;;;;;;4.83;2.90;;;;;;;30.27;39.51;100031.11;1778671;80;21534;-69
2021/06/15 09:09:42;;;;;;;3.55;2.58;;;;;;;30.39;40.09;100024.00;1781247;80;20977;-71
2021/06/15 09:12:10;;;;;;;3.12;2.90;;;;;;;30.55;39.32;100030.74;1792404;78;20960;-67
2021/06/15 09:14:54;;;;;;;3.00;2.80;;;;;;;30.57;38.61;100021.98;1779535;80;20962;-69
2021/06/15 09:17:33;;;;;;;3.95;2.98;;;;;;;30.55;38.64;100015.14;1777475;80;20885;-68
2021/06/15 09:20:28;;;;;;;4.15;2.70;;;;;;;30.45;38.88;100013.74;1770959;80;20955;-66
2021/06/15 09:23:08;;;;;;;4.17;2.80;;;;;;;30.29;38.79;100012.09;1782120;79;21799;-64
2021/06/15 09:25:35;;;;;;;3.42;3.10;;;;;;;30.09;39.48;100016.21;1786510;80;20900;-67
2021/06/15 09:28:19;;;;;;;3.42;3.12;;;;;;;29.92;39.74;100011.00;1793175;80;21458;-73
2021/06/15 09:31:09;;;;;;;3.50;3.20;;;;;;;29.79;40.13;100012.69;1779234;79;21001;-73
2021/06/15 09:33:44;;;;;;;2.90;2.70;;;;;;;29.70;40.45;100005.89;1776375;80;20874;-72
2021/06/15 09:36:17;;;;;;;;;;;;;;;29.65;41.01;100005.70;1783455;80;21139;-67
2021/06/15 09:38:56;;;;;;;3.83;3.08;;;;;;;29.73;40.67;99997.94;1783110;79;20115;-81
2021/06/15 09:41:38;;;;;;;3.77;3.40;;;;;;;29.73;40.37;100001.96;1792742;79;20856;-73
2021/06/15 09:44:26;;;;;;;3.52;3.22;;;;;;;29.66;40.49;100003.84;1774384;80;21750;-63
2021/06/15 09:47:04;;;;;;;3.70;3.40;;;;;;;29.59;41.25;99991.77;1780728;80;21575;-69
2021/06/15 09:49:39;;;;;;;5.80;4.20;;;;;;;29.56;41.22;99999.45;1781217;79;21107;-73
2021/06/15 09:52:27;;;;;;;3.87;3.55;;;;;;;29.51;41.32;99986.66;1779908;80;20923;-77
2021/06/15 09:55:07;;;;;;;4.28;3.42;;;;;;;29.49;41.89;99992.75;1784355;79;20936;-75
2021/06/15 09:57:40;;;;;;;6.33;3.30;;;;;;;29.45;41.35;99991.00;1785215;79;20998;-69
2021/06/15 10:00:19;;;;;;;4.05;3.72;;;;;;;29.45;40.71;99986.16;1796521;79;20986;-66
2021/06/15 10:02:55;;;;;;;5.35;3.37;;;;;;;29.41;41.13;99980.90;1795624;79;21119;-66
2021/06/15 10:05:29;;;;;;;5.50;3.20;;;;;;;29.38;41.18;99978.60;1801846;79;20931;-76
2021/06/15 10:08:00;;;;;;;4.45;3.30;;;;;;;29.27;41.03;99980.57;1793890;79;20891;-75
2021/06/15 10:10:32;;;;;;;3.60;3.30;;;;;;;29.13;41.11;99983.81;1791525;79;20998;-76
2021/06/15 10:12:59;;;;;;;3.50;3.20;;;;;;;28.94;41.33;99978.75;1774186;79;21079;-72
2021/06/15 10:15:28;;;;;;;6.90;3.90;;;;;;;28.80;42.45;99983.24;1768621;80;21224;-72
2021/06/15 10:17:56;;;;;;;5.45;3.52;;;;;;;28.78;42.87;99981.31;1769798;81;20920;-69
2021/06/15 10:20:26;;;;;;;4.92;3.80;;;;;;;28.79;42.16;99983.48;1770225;80;21099;-71
2021/06/15 10:22:53;;;;;;;3.85;3.55;;;;;;;28.71;42.44;99986.35;1770078;80;21560;-73
2021/06/15 10:25:22;;;;;;;3.80;3.30;;;;;;;28.60;42.67;99984.27;1769985;81;20923;-65
2021/06/15 10:27:50;;;;;;;3.65;3.35;;;;;;;28.47;42.90;99975.69;1770150;81;21837;-69
2021/06/15 10:30:19;;;;;;;3.62;3.02;;;;;;;28.37;43.18;99973.43;1770310;80;21544;-64
2021/06/15 10:32:59;;;;;;;3.50;3.30;;;;;;;28.33;42.64;99972.70;1742358;81;20979;-74
2021/06/15 10:35:46;;;;;;;4.70;3.37;;;;;;;28.34;43.22;99966.31;1770325;81;20863;-67
2021/06/15 10:38:26;;;;;;;3.55;3.25;;;;;;;28.39;42.71;99962.52;1770124;80;20958;-63
2021/06/15 10:40:55;;;;;;;6.47;3.40;;;;;;;28.45;42.70;99953.64;1770210;80;21099;-67
2021/06/15 10:43:31;;;;;;;3.70;3.40;;;;;;;28.53;42.66;99947.58;1770038;81;20950;-71
2021/06/15 10:46:06;;;;;;;3.83;3.50;;;;;;;28.61;42.53;99959.13;1742515;81;20844;-72
2021/06/15 10:48:40;;;;;;;3.27;3.02;;;;;;;28.62;42.21;99949.55;1770458;80;20963;-66
2021/06/15 10:51:28;;;;;;;3.42;3.12;;;;;;;28.63;42.14;99952.54;1770031;80;20880;-71
2021/06/15 10:54:03;;;;;;;3.10;2.90;;;;;;;28.63;41.61;99947.70;1796220;79;21396;-78
2021/06/15 10:56:34;;;;;;;4.50;3.17;;;;;;;28.64;41.29;99947.48;1789063;80;20905;-74
2021/06/15 10:59:09;;;;;;;3.75;3.45;;;;;;;28.69;41.20;99944.20;1778564;80;20939;-65
2021/06/15 11:01:39;;;;;;;4.85;3.08;;;;;;;28.77;41.52;99938.13;1771554;81;20973;-74
2021/06/15 11:04:10;;;;;;;3.50;3.10;;;;;;;28.92;40.93;99937.92;1753141;79;21427;-65
2021/06/15 11:06:42;;;;;;;3.90;3.30;;;;;;;29.05;41.57;99943.80;1776986;79;21030;-64
2021/06/15 11:09:16;;;;;;;7.28;3.30;;;;;;;29.18;40.37;99941.11;1763418;79;20978;-72
2021/06/15 11:11:46;;;;;;;4.30;3.00;;;;;;;29.24;41.39;99935.39;1772487;79;21454;-69
2021/06/15 11:14:21;;;;;;;4.67;3.40;;;;;;;29.32;41.58;99940.02;1771237;79;20888;-60
2021/06/15 11:16:50;;;;;;;3.83;3.10;;;;;;;29.40;41.46;99942.48;1773791;79;21073;-63
2021/06/15 11:19:25;;;;;;;6.08;3.35;;;;;;;29.47;40.08;99937.96;1771218;79;21775;-69
2021/06/15 11:22:09;;;;;;;3.58;2.90;;;;;;;29.49;40.01;99939.09;1777333;79;20954;-63
2021/06/15 11:24:48;;;;;;;3.47;3.20;;;;;;;29.52;40.69;99942.18;1775872;79;20832;-63
2021/06/15 11:27:25;;;;;;;4.60;3.30;;;;;;;29.61;40.45;99944.61;1774982;79;20939;-62
2021/06/15 11:29:59;;;;;;;4.30;3.40;;;;;;;29.67;40.53;99942.42;1768190;79;20895;-62
2021/06/15 11:32:33;;;;;;;3.05;2.85;;;;;;;29.71;40.16;99944.98;1776409;79;23181;-62
2021/06/15 11:35:06;;;;;;;3.40;3.20;;;;;;;29.66;39.93;99941.59;1767735;79;20943;-62
2021/06/15 11:37:45;;;;;;;3.25;3.05;;;;;;;29.52;39.79;99942.18;1769237;81;20915;-66
2021/06/15 11:40:35;;;;;;;5.37;3.50;;;;;;;29.38;40.39;99936.50;1783118;79;20894;-63
2021/06/15 11:43:16;;;;;;;4.10;2.95;;;;;;;29.28;40.56;99941.98;1769605;79;20911;-61
2021/06/15 11:45:50;;;;;;;4.00;3.52;;;;;;;29.20;40.12;99937.67;1767351;79;21134;-63
2021/06/15 11:48:33;;;;;;;3.30;3.10;;;;;;;29.11;40.40;99930.39;1772031;79;21010;-62
2021/06/15 11:51:07;;;;;;;3.60;3.27;;;;;;;29.03;40.91;99933.28;1766849;79;21571;-61
2021/06/15 11:53:37;;;;;;;3.62;3.30;;;;;;;29.00;40.99;99930.19;1775369;79;21012;-62
2021/06/15 11:56:08;;;;;;;3.98;3.55;;;;;;;29.02;40.43;99934.83;1789213;79;20919;-61
2021/06/15 11:58:40;;;;;;;3.60;3.40;;;;;;;29.04;40.88;99924.72;1792168;79;21078;-65
2021/06/15 12:01:10;;;;;;;13.45;4.40;;;;;;;29.14;41.00;99936.67;1794597;79;20970;-65
2021/06/15 12:03:58;;;;;;;8.40;3.72;;;;;;;29.30;42.10;99939.41;1785115;79;20969;-67
2021/06/15 12:06:26;;;;;;;6.83;3.25;;;;;;;29.32;43.28;99931.16;1790308;79;20920;-68
2021/06/15 12:08:55;;;;;;;4.83;3.10;;;;;;;29.19;44.42;99930.14;1766965;80;21006;-65
2021/06/15 12:11:22;;;;;;;3.40;3.10;;;;;;;29.08;44.50;99923.27;1736670;79;21163;-68
2021/06/15 12:13:50;;;;;;;4.78;3.05;;;;;;;28.97;44.49;99926.58;1743489;80;20938;-62
2021/06/15 12:16:30;;;;;;;6.40;3.00;;;;;;;28.90;44.54;99924.41;1795680;78;20906;-65
2021/06/15 12:18:58;;;;;;;4.90;2.80;;;;;;;28.85;44.52;99924.52;1754824;79;20939;-65
2021/06/15 12:21:27;;;;;;;9.43;3.70;;;;;;;28.84;44.94;99919.36;1797658;78;21005;-68
2021/06/15 12:23:59;;;;;;;9.00;4.20;;;;;;;28.88;44.60;99924.63;1765978;80;21822;-63
2021/06/15 12:26:29;;;;;;;9.95;3.58;;;;;;;28.83;44.97;99916.38;1796592;79;20886;-64
2021/06/15 12:29:10;;;;;;;5.08;2.77;;;;;;;28.73;45.30;99919.98;1794894;79;20891;-61
2021/06/15 12:31:44;;;;;;;4.50;3.02;;;;;;;28.61;45.89;99915.75;1794160;79;20996;-63
2021/06/15 12:34:16;;;;;;;4.72;2.90;;;;;;;28.52;45.97;99927.17;1793647;79;20977;-64
2021/06/15 12:36:55;;;;;;;5.92;2.92;;;;;;;28.43;46.11;99929.73;1792134;79;21099;-63
2021/06/15 12:39:25;;;;;;;3.25;2.95;;;;;;;28.25;46.35;99934.88;1794031;79;20970;-64
2021/06/15 12:41:58;;;;;;;3.20;2.90;;;;;;;28.04;46.77;99944.34;1792053;79;20990;-70
2021/06/15 12:44:34;;;;;;;4.50;2.70;;;;;;;27.74;46.52;99940.66;1789135;79;20934;-62
2021/06/15 12:47:10;;;;;;;3.27;2.98;;;;;;;27.22;49.11;99927.79;1770966;79;20942;-67
2021/06/15 12:49:37;;;;;;;3.77;3.00;;;;;;;26.70;51.96;99920.22;1784812;79;21165;-67
2021/06/15 12:52:11;;;;;;;5.08;3.27;;;;;;;26.24;54.38;99919.25;1781298;79;20919;-72
2021/06/15 12:54:44;;;;;;;6.62;3.55;;;;;;;25.83;54.59;99912.34;1769672;80;20966;-67
2021/06/15 12:57:19;;;;;;;3.60;3.30;;;;;;;25.41;60.54;99914.34;1804773;78;28051;-73
2021/06/15 13:00:05;;;;;;;3.75;3.45;;;;;;;25.00;61.76;99918.78;1792146;78;20906;-72
2021/06/15 13:02:32;;;;;;;7.80;4.35;;;;;;;24.66;62.29;99919.24;1779004;78;21138;-72
2021/06/15 13:05:02;;;;;;;4.10;3.58;;;;;;;24.36;61.68;99918.33;1793560;78;20902;-69
2021/06/15 13:07:31;;;;;;;4.22;3.60;;;;;;;24.05;62.74;99914.33;1790288;79;20973;-78
2021/06/15 13:10:20;;;;;;;3.87;3.47;;;;;;;23.80;62.78;99904.34;1794971;78;20880;-65
2021/06/15 13:12:50;;;;;;;4.05;3.52;;;;;;;23.57;63.08;99905.62;1773431;79;20878;-63
2021/06/15 13:15:22;;;;;;;7.80;3.90;;;;;;;23.40;63.55;99891.20;1760144;80;21112;-65
2021/06/15 13:18:04;;;;;;;3.77;3.47;;;;;;;23.32;63.81;99882.76;1793796;78;21398;-64
2021/06/15 13:20:33;;;;;;;7.17;4.47;;;;;;;23.27;64.73;99877.95;1784909;79;21024;-66
2021/06/15 13:23:00;;;;;;;4.60;3.90;;;;;;;23.28;65.51;99871.64;1794343;79;20859;-62
2021/06/15 13:25:30;;;;;;;3.72;3.42;;;;;;;23.30;66.12;99863.50;1797652;79;20907;-65
2021/06/15 13:28:01;;;;;;;4.00;3.50;;;;;;;23.35;66.31;99868.30;1803452;79;21061;-63
2021/06/15 13:30:41;;;;;;;9.35;4.17;;;;;;;23.38;65.35;99866.13;1796877;79;20962;-71
2021/06/15 13:33:14;;;;;;;5.50;3.47;;;;;;;23.44;65.50;99866.78;1794726;79;21539;-64
2021/06/15 13:35:51;;;;;;;6.67;3.65;;;;;;;23.50;64.78;99862.10;1795721;79;21576;-69
2021/06/15 13:38:21;;;;;;;6.53;3.83;;;;;;;23.51;64.82;99855.78;1793426;79;20844;-65
2021/06/15 13:40:57;;;;;;;4.53;3.98;;;;;;;23.54;64.26;99851.48;1766213;79;21936;-69
2021/06/15 13:43:35;;;;;;;3.90;2.87;;;;;;;23.61;63.53;99847.60;1784652;79;21013;-65
2021/06/15 13:46:19;;;;;;;3.25;2.92;;;;;;;23.66;62.18;99837.28;1796414;79;21072;-62
2021/06/15 13:48:44;;;;;;;4.45;2.65;;;;;;;23.72;60.97;99835.75;1797827;79;21511;-75
2021/06/15 13:51:15;;;;;;;4.10;2.50;;;;;;;23.76;60.42;99833.90;1786367;79;20993;-65
2021/06/15 13:53:43;;;;;;;4.20;2.58;;;;;;;23.80;59.70;99832.55;1790424;79;21121;-62
2021/06/15 13:56:11;;;;;;;3.33;3.00;;;;;;;23.90;60.05;99834.98;1781125;79;21729;-75
2021/06/15 13:58:39;;;;;;;3.17;2.90;;;;;;;23.99;60.11;99841.08;1804927;79;20856;-71
2021/06/15 14:01:06;;;;;;;4.80;4.30;;;;;;;24.06;59.52;99856.13;1802346;79;20993;-71
2021/06/15 14:03:34;;;;;;;7.10;4.22;;;;;;;24.06;59.20;99853.47;1795674;79;20981;-75
2021/06/15 14:06:01;;;;;;;4.87;3.95;;;;;;;24.05;59.19;99854.47;1786781;80;21765;-71
